Meiners Oaks, California
Current Conditions -  °F | °C
As of 2:55 AM on Friday 19 Dec 2014 (Local Time) from KCMA Reporting Station
Clear Clear  
Wind Chill: 49°   Ceiling: Unl
Heat Index: 49°   Visibility: 10mi
Dew Point: 45°   Wind: 3mph
Humidity: 86%   Direction: 70°ENE
Pressure: 30.19"   Gusts: NA
Location:  34.5795°N, 119.124°W
Report Text: KCMA 191055Z 07003KT 10SM CLR 09/07 A3019 RMK AO2 SLP233 T00940072
Loading
Personal Weather Stations






























Interactive Weather Map New forecast layout! Learn more

10-Day Weather Forecast

Advertisements
Track Severe Weather on mobile